Time;durP1;ratioP1;P1;durP2;ratioP2;P2;SDS_P1;SDS_P2;PMS_P1;PMS_P2;Temp;Humidity;BMP_temperature;BMP_pressure;BME280_temperature;BME280_humidity;BME280_pressure;Samples;Min_cycle;Max_cycle;Signal;HPM_P1;HPM_P2
2022/03/10 00:00:18;;;;;;;21.37;7.43;;;2.90;82.90;;;;;;6355126;22;20421;-84
2022/03/10 00:02:44;;;;;;;18.70;7.03;;;2.90;83.30;;;;;;6325533;22;20006;-84
2022/03/10 00:05:15;;;;;;;17.70;7.30;;;2.90;83.70;;;;;;6326429;22;20010;-85
2022/03/10 00:07:41;;;;;;;18.17;7.33;;;2.90;83.50;;;;;;6326962;22;20007;-84
2022/03/10 00:10:08;;;;;;;20.00;7.83;;;2.90;83.60;;;;;;6324476;22;20014;-81
2022/03/10 00:12:38;;;;;;;18.33;7.47;;;2.90;84.00;;;;;;6323659;22;20101;-81
2022/03/10 00:15:08;;;;;;;20.53;7.63;;;2.80;84.20;;;;;;6325199;22;20007;-81
2022/03/10 00:17:34;;;;;;;17.77;6.80;;;2.80;84.70;;;;;;6353916;22;20010;-83
2022/03/10 00:20:00;;;;;;;22.10;7.87;;;2.80;84.50;;;;;;6354299;22;20002;-81
2022/03/10 00:22:26;;;;;;;19.53;7.10;;;2.70;84.40;;;;;;6354623;22;20009;-83
2022/03/10 00:24:51;;;;;;;17.50;6.80;;;2.70;84.40;;;;;;6354501;22;20513;-81
2022/03/10 00:27:17;;;;;;;19.97;7.60;;;2.80;84.70;;;;;;6327117;22;20056;-82
2022/03/10 00:29:43;;;;;;;16.43;6.47;;;2.80;85.10;;;;;;6325560;22;20102;-82
2022/03/10 00:32:09;;;;;;;13.73;5.60;;;2.60;85.00;;;;;;6325728;22;20083;-82
2022/03/10 00:34:37;;;;;;;14.50;5.07;;;2.50;85.10;;;;;;6324828;22;20006;-81
2022/03/10 00:37:03;;;;;;;15.33;5.67;;;2.60;84.70;;;;;;6351914;22;20010;-82
2022/03/10 00:39:29;;;;;;;17.07;5.77;;;2.60;84.10;;;;;;6326096;22;20007;-83
2022/03/10 00:41:57;;;;;;;16.17;6.07;;;2.60;84.30;;;;;;6325903;22;20011;-83
2022/03/10 00:44:24;;;;;;;12.93;5.13;;;2.70;84.40;;;;;;6353236;22;20240;-81
2022/03/10 00:46:50;;;;;;;15.37;5.80;;;2.70;84.60;;;;;;6326245;22;20003;-83
2022/03/10 00:49:16;;;;;;;15.40;5.77;;;2.70;84.30;;;;;;6353472;22;19998;-81
2022/03/10 00:51:42;;;;;;;12.30;4.90;;;2.70;84.10;;;;;;6355288;22;20010;-82
2022/03/10 00:54:07;;;;;;;11.77;4.90;;;2.70;84.00;;;;;;6327227;22;20071;-82
2022/03/10 00:56:33;;;;;;;12.13;4.03;;;2.70;84.60;;;;;;6327771;22;20007;-83
2022/03/10 00:59:01;;;;;;;12.33;4.93;;;2.70;83.80;;;;;;6329029;22;20067;-81
2022/03/10 01:01:27;;;;;;;12.83;4.50;;;2.70;84.10;;;;;;6326855;22;20002;-82
2022/03/10 01:03:53;;;;;;;10.80;4.30;;;2.70;84.50;;;;;;6328224;22;20106;-83
2022/03/10 01:06:19;;;;;;;13.33;5.10;;;2.60;84.40;;;;;;6327329;22;19999;-83
2022/03/10 01:08:45;;;;;;;11.50;4.10;;;2.60;84.70;;;;;;6356299;22;20002;-82
2022/03/10 01:11:10;;;;;;;14.83;5.10;;;2.60;85.20;;;;;;6354859;22;20019;-80
2022/03/10 01:13:38;;;;;;;13.97;5.33;;;2.60;85.30;;;;;;6327982;22;20013;-82
2022/03/10 01:16:04;;;;;;;9.63;4.67;;;2.50;85.80;;;;;;6327294;22;20013;-81
2022/03/10 01:18:30;;;;;;;11.40;3.70;;;2.50;85.70;;;;;;6328912;22;19995;-80
2022/03/10 01:20:55;;;;;;;9.83;4.27;;;2.50;85.50;;;;;;6328046;22;20006;-82
2022/03/10 01:23:21;;;;;;;12.23;4.70;;;2.40;85.50;;;;;;6348220;22;20060;-84
2022/03/10 01:25:47;;;;;;;12.77;4.60;;;2.40;86.10;;;;;;6317657;22;20437;-84
2022/03/10 01:28:13;;;;;;;11.83;4.97;;;2.40;86.70;;;;;;6319048;22;20010;-83
2022/03/10 01:30:39;;;;;;;13.17;4.50;;;2.40;86.40;;;;;;6318465;22;20003;-84
2022/03/10 01:33:05;;;;;;;8.57;3.50;;;2.40;86.90;;;;;;6344566;22;20419;-84
2022/03/10 01:35:31;;;;;;;13.67;4.73;;;2.40;86.60;;;;;;6345487;22;20114;-82
2022/03/10 01:38:00;;;;;;;12.77;5.00;;;2.40;86.40;;;;;;6318732;22;20014;-84
2022/03/10 01:40:25;;;;;;;16.67;4.90;;;2.40;86.30;;;;;;6346030;22;20025;-85
2022/03/10 01:42:52;;;;;;;10.93;4.83;;;2.40;86.60;;;;;;6347263;22;19998;-83
2022/03/10 01:45:18;;;;;;;13.00;4.57;;;2.40;86.60;;;;;;6346710;22;19995;-84
2022/03/10 01:47:44;;;;;;;14.53;4.90;;;2.40;86.60;;;;;;6347380;22;20144;-84
2022/03/10 01:50:12;;;;;;;13.83;4.97;;;2.40;86.40;;;;;;6348784;22;20001;-84
2022/03/10 01:52:40;;;;;;;12.07;3.97;;;2.40;87.00;;;;;;6321458;22;20030;-83
2022/03/10 01:55:08;;;;;;;12.57;4.57;;;2.30;87.30;;;;;;6323087;22;20014;-84
2022/03/10 01:57:35;;;;;;;12.90;4.30;;;2.20;87.30;;;;;;6323987;22;19995;-83
2022/03/10 02:00:01;;;;;;;10.07;4.77;;;2.20;87.40;;;;;;6355285;22;20011;-84
2022/03/10 02:02:30;;;;;;;13.03;4.83;;;2.20;88.30;;;;;;6325775;22;20093;-84
2022/03/10 02:04:55;;;;;;;11.57;4.23;;;2.20;88.90;;;;;;6327238;22;20005;-83
2022/03/10 02:10:27;;;;;;;11.50;4.70;;;2.00;88.80;;;;;;6195315;23;20005;-84
2022/03/10 02:12:55;;;;;;;16.97;5.17;;;2.00;89.10;;;;;;6191922;23;20379;-83
2022/03/10 02:18:08;;;;;;;10.40;4.27;;;2.00;88.50;;;;;;6346595;22;20013;-85
2022/03/10 02:20:36;;;;;;;11.77;4.50;;;1.90;89.20;;;;;;6345264;22;20002;-82
2022/03/10 02:23:03;;;;;;;12.23;4.30;;;1.90;89.20;;;;;;6315783;22;20444;-83
2022/03/10 02:25:31;;;;;;;13.23;5.03;;;1.90;89.50;;;;;;6345183;22;20002;-83
2022/03/10 02:27:59;;;;;;;12.40;4.80;;;1.90;89.70;;;;;;6317803;22;20003;-83
2022/03/10 02:30:30;;;;;;;11.60;3.83;;;1.90;90.00;;;;;;6317448;22;19998;-83
2022/03/10 02:32:57;;;;;;;11.27;4.67;;;1.90;90.50;;;;;;6352244;22;20026;-81
2022/03/10 02:35:23;;;;;;;12.53;4.87;;;1.80;90.60;;;;;;6327802;22;20006;-81
2022/03/10 02:37:49;;;;;;;11.53;5.03;;;1.90;90.50;;;;;;6354402;22;19999;-80
2022/03/10 02:40:14;;;;;;;11.47;4.37;;;1.80;90.80;;;;;;6355376;22;19999;-82
2022/03/10 02:42:41;;;;;;;13.13;5.30;;;1.80;91.00;;;;;;6356525;22;19999;-79
2022/03/10 02:45:07;;;;;;;16.80;4.57;;;1.80;91.20;;;;;;6353799;22;19995;-80
2022/03/10 02:47:34;;;;;;;11.20;4.70;;;1.70;91.20;;;;;;6328944;22;19999;-81
2022/03/10 02:50:06;;;;;;;12.07;4.43;;;1.90;91.20;;;;;;6356544;22;20006;-82
2022/03/10 02:52:34;;;;;;;11.27;4.50;;;1.70;91.30;;;;;;6355440;22;20005;-82
2022/03/10 02:55:02;;;;;;;13.43;5.33;;;1.70;91.10;;;;;;6355177;22;20003;-81
2022/03/10 02:57:29;;;;;;;13.00;5.33;;;1.70;91.00;;;;;;6356194;22;20010;-80
2022/03/10 02:59:54;;;;;;;10.93;5.27;;;1.70;91.30;;;;;;6328521;22;20034;-80
2022/03/10 03:02:20;;;;;;;13.63;5.10;;;1.60;91.40;;;;;;6355054;22;20013;-80
2022/03/10 03:04:48;;;;;;;15.33;4.73;;;1.60;91.80;;;;;;6355759;22;19994;-80
2022/03/10 03:07:14;;;;;;;10.97;5.23;;;1.60;91.80;;;;;;6356536;22;20068;-80
2022/03/10 03:09:39;;;;;;;14.97;5.90;;;1.70;91.80;;;;;;6357665;22;19998;-80
2022/03/10 03:12:16;;;;;;;12.57;5.67;;;1.50;91.60;;;;;;6326967;22;20011;-80
2022/03/10 03:14:42;;;;;;;11.70;5.30;;;1.50;92.00;;;;;;6327245;22;20127;-81
2022/03/10 03:17:07;;;;;;;15.40;5.43;;;1.60;92.10;;;;;;6356840;22;20506;-80
2022/03/10 03:19:34;;;;;;;13.53;5.33;;;1.60;92.20;;;;;;6328027;22;20003;-82
2022/03/10 03:21:59;;;;;;;15.43;5.97;;;1.50;92.20;;;;;;6345639;22;20005;-83
2022/03/10 03:24:25;;;;;;;19.40;5.67;;;1.50;91.90;;;;;;6343014;22;20014;-84
2022/03/10 03:26:51;;;;;;;17.03;6.07;;;1.60;92.00;;;;;;6317346;22;20009;-84
2022/03/10 03:29:17;;;;;;;18.53;6.17;;;1.50;91.80;;;;;;6343390;22;20006;-84
2022/03/10 03:31:43;;;;;;;15.33;5.47;;;1.50;91.90;;;;;;6314655;22;20003;-84
2022/03/10 03:34:12;;;;;;;15.40;5.90;;;1.50;91.90;;;;;;6343144;22;20074;-85
2022/03/10 03:36:43;;;;;;;19.10;6.07;;;1.50;92.00;;;;;;6314880;22;20071;-84
2022/03/10 03:39:09;;;;;;;21.83;6.97;;;1.50;92.00;;;;;;6316169;22;20002;-84
2022/03/10 03:41:35;;;;;;;18.90;6.50;;;1.50;92.10;;;;;;6343130;22;20058;-84
2022/03/10 03:44:01;;;;;;;18.23;7.10;;;1.50;92.10;;;;;;6315183;22;20370;-85
2022/03/10 03:46:27;;;;;;;20.13;7.50;;;1.50;92.00;;;;;;6316687;22;20084;-84
2022/03/10 03:48:54;;;;;;;16.63;6.83;;;1.40;91.90;;;;;;6345292;22;19995;-84
2022/03/10 03:51:20;;;;;;;20.77;6.77;;;1.40;91.90;;;;;;6316322;22;20186;-84
2022/03/10 03:53:47;;;;;;;19.37;7.37;;;1.40;92.30;;;;;;6342688;22;20104;-84
2022/03/10 03:56:13;;;;;;;22.50;8.13;;;1.40;92.10;;;;;;6317175;22;20249;-84
2022/03/10 03:58:41;;;;;;;19.73;6.27;;;1.40;92.10;;;;;;6345960;22;20048;-84
2022/03/10 04:01:07;;;;;;;18.57;7.13;;;1.30;92.30;;;;;;6345326;22;20001;-84
2022/03/10 04:03:33;;;;;;;21.07;6.80;;;1.30;92.40;;;;;;6317350;22;20034;-84
2022/03/10 04:05:58;;;;;;;18.20;6.73;;;1.40;92.60;;;;;;6317048;22;20003;-84
2022/03/10 04:08:25;;;;;;;20.83;6.87;;;1.40;92.40;;;;;;6315571;22;20110;-84
2022/03/10 04:10:52;;;;;;;19.23;6.57;;;1.30;92.30;;;;;;6344495;22;20010;-84
2022/03/10 04:13:24;;;;;;;20.57;7.30;;;1.30;92.20;;;;;;6317115;22;20025;-84
2022/03/10 04:15:53;;;;;;;18.37;6.80;;;1.40;92.10;;;;;;6345368;22;19995;-84
2022/03/10 04:18:20;;;;;;;30.80;7.53;;;1.30;92.20;;;;;;6343692;22;19995;-84
2022/03/10 04:20:52;;;;;;;18.97;6.90;;;1.20;92.20;;;;;;6316243;22;20030;-84
2022/03/10 04:23:18;;;;;;;22.20;7.28;;;1.20;92.40;;;;;;6314063;22;20017;-84
2022/03/10 04:25:43;;;;;;;17.40;7.50;;;1.30;92.50;;;;;;6344742;22;19999;-83
2022/03/10 04:28:09;;;;;;;20.20;6.73;;;1.20;92.50;;;;;;6316917;22;19999;-84
2022/03/10 04:30:37;;;;;;;18.20;6.20;;;1.20;92.40;;;;;;6345141;22;20002;-84
2022/03/10 04:33:03;;;;;;;17.23;6.87;;;1.20;92.70;;;;;;6318167;22;20088;-84
2022/03/10 04:35:29;;;;;;;17.73;7.27;;;1.20;92.80;;;;;;6316285;22;20452;-84
2022/03/10 04:37:55;;;;;;;17.07;6.93;;;1.20;92.90;;;;;;6316949;22;20006;-83
2022/03/10 04:40:22;;;;;;;19.40;7.30;;;1.10;93.10;;;;;;6341388;22;20002;-84
2022/03/10 04:42:49;;;;;;;16.53;7.13;;;1.10;93.40;;;;;;6316883;22;20002;-84
2022/03/10 04:45:15;;;;;;;21.60;7.23;;;1.10;93.10;;;;;;6316396;22;19999;-84
2022/03/10 04:47:41;;;;;;;15.77;6.40;;;1.00;93.50;;;;;;6316990;22;20048;-83
2022/03/10 04:50:11;;;;;;;15.87;6.87;;;1.10;93.40;;;;;;6316948;22;20021;-84
2022/03/10 04:52:37;;;;;;;15.43;6.40;;;1.00;93.70;;;;;;6316858;22;20006;-84
2022/03/10 04:55:03;;;;;;;15.87;6.27;;;1.00;93.60;;;;;;6318184;22;20059;-84
2022/03/10 04:57:29;;;;;;;18.63;7.33;;;1.00;93.50;;;;;;6345886;22;19999;-84
2022/03/10 04:59:55;;;;;;;24.53;6.87;;;1.00;93.60;;;;;;6317360;22;20011;-84
2022/03/10 05:02:21;;;;;;;14.77;6.23;;;1.00;93.60;;;;;;6318110;22;20033;-84
2022/03/10 05:04:46;;;;;;;16.23;6.13;;;1.00;93.60;;;;;;6344776;22;20002;-84
2022/03/10 05:07:13;;;;;;;20.20;6.50;;;1.00;93.50;;;;;;6317459;22;20003;-84
2022/03/10 05:09:39;;;;;;;16.00;6.53;;;1.00;93.60;;;;;;6345377;22;20437;-83
2022/03/10 05:12:05;;;;;;;13.07;6.27;;;0.90;93.80;;;;;;6317505;22;20022;-84
2022/03/10 05:14:34;;;;;;;17.10;6.67;;;0.90;94.00;;;;;;6343747;22;20010;-84
2022/03/10 05:17:02;;;;;;;18.33;6.40;;;0.90;94.00;;;;;;6325833;22;20062;-84
2022/03/10 05:19:30;;;;;;;18.43;6.23;;;0.90;93.80;;;;;;6326828;22;20078;-84
2022/03/10 05:21:58;;;;;;;16.20;6.60;;;0.90;94.10;;;;;;6344719;22;20009;-84
2022/03/10 05:24:24;;;;;;;17.73;7.17;;;0.80;94.10;;;;;;6316246;22;20022;-84
2022/03/10 05:26:50;;;;;;;15.80;7.07;;;0.80;94.30;;;;;;6317057;22;20429;-84
2022/03/10 05:29:23;;;;;;;17.90;6.93;;;0.80;94.30;;;;;;6345180;22;20052;-83
2022/03/10 05:31:52;;;;;;;20.53;7.60;;;0.80;94.10;;;;;;6346988;22;20002;-83
2022/03/10 05:34:18;;;;;;;15.83;6.07;;;0.80;94.00;;;;;;6318086;22;20002;-84
2022/03/10 05:36:44;;;;;;;18.17;6.37;;;0.70;94.00;;;;;;6345484;22;20002;-83
2022/03/10 05:39:10;;;;;;;18.40;7.33;;;0.70;94.10;;;;;;6316520;22;20064;-83
2022/03/10 05:41:35;;;;;;;17.53;6.23;;;0.80;94.20;;;;;;6346456;22;20002;-84
2022/03/10 05:44:01;;;;;;;16.27;6.20;;;0.70;94.10;;;;;;6346008;22;20059;-84
2022/03/10 05:46:28;;;;;;;21.90;7.10;;;0.80;94.30;;;;;;6317352;22;20014;-84
2022/03/10 05:48:54;;;;;;;18.93;6.40;;;0.60;94.50;;;;;;6317875;22;20329;-84
2022/03/10 05:51:20;;;;;;;16.47;6.80;;;0.70;94.90;;;;;;6318486;22;20066;-85
2022/03/10 05:53:48;;;;;;;17.37;6.30;;;0.70;94.90;;;;;;6317432;22;20090;-84
2022/03/10 05:56:14;;;;;;;16.77;6.97;;;0.70;95.10;;;;;;6317472;22;20006;-84
2022/03/10 05:58:40;;;;;;;16.93;5.90;;;0.70;95.00;;;;;;6317493;22;20003;-84
2022/03/10 06:01:06;;;;;;;15.13;6.70;;;0.70;95.10;;;;;;6347078;22;20030;-84
2022/03/10 06:03:33;;;;;;;18.20;6.37;;;0.70;95.00;;;;;;6317233;22;20068;-84
2022/03/10 06:05:58;;;;;;;16.63;6.40;;;0.60;94.90;;;;;;6345296;22;20535;-84
2022/03/10 06:08:25;;;;;;;17.17;7.07;;;0.70;95.20;;;;;;6345038;22;20124;-84
2022/03/10 06:10:51;;;;;;;20.40;6.20;;;0.70;95.10;;;;;;6321718;22;20021;-82
2022/03/10 06:13:17;;;;;;;17.57;6.30;;;0.70;94.90;;;;;;6324748;22;20010;-82
2022/03/10 06:15:42;;;;;;;15.97;6.73;;;0.70;94.70;;;;;;6354033;22;19998;-82
2022/03/10 06:18:09;;;;;;;17.57;5.83;;;0.80;94.50;;;;;;6352719;22;19999;-83
2022/03/10 06:20:34;;;;;;;21.33;6.70;;;0.80;94.60;;;;;;6320825;22;20089;-83
2022/03/10 06:23:01;;;;;;;15.23;6.47;;;0.90;94.80;;;;;;6323669;22;20433;-83
2022/03/10 06:25:29;;;;;;;19.73;6.37;;;0.90;94.80;;;;;;6323706;22;20010;-83
2022/03/10 06:27:57;;;;;;;12.50;6.20;;;1.00;94.60;;;;;;6350970;22;20037;-83
2022/03/10 06:30:23;;;;;;;17.00;6.33;;;1.00;94.30;;;;;;6354212;22;19994;-81
2022/03/10 06:32:49;;;;;;;12.87;5.47;;;1.00;94.10;;;;;;6356908;22;20006;-82
2022/03/10 06:35:14;;;;;;;18.90;6.73;;;1.20;94.00;;;;;;6327831;22;20003;-83
2022/03/10 06:37:40;;;;;;;18.03;5.83;;;1.20;94.00;;;;;;6329565;22;20058;-82
2022/03/10 06:40:07;;;;;;;16.87;6.43;;;1.30;94.00;;;;;;6355895;22;20032;-80
2022/03/10 06:42:34;;;;;;;14.50;5.60;;;1.30;93.70;;;;;;6355598;22;20332;-82
2022/03/10 06:44:59;;;;;;;20.97;6.53;;;1.40;93.10;;;;;;6326296;22;19999;-81
2022/03/10 06:47:46;;;;;;;16.00;5.80;;;1.40;93.10;;;;;;6325614;22;19999;-83
2022/03/10 06:50:12;;;;;;;13.93;5.57;;;1.50;92.90;;;;;;6326455;22;20029;-81
2022/03/10 06:52:38;;;;;;;14.87;6.33;;;1.60;92.70;;;;;;6325740;22;20003;-82
2022/03/10 06:55:05;;;;;;;17.73;6.90;;;1.60;92.60;;;;;;6326110;22;19999;-81
2022/03/10 06:57:30;;;;;;;19.00;6.80;;;1.70;92.50;;;;;;6325120;22;20006;-82
2022/03/10 06:59:56;;;;;;;20.20;7.10;;;1.80;92.20;;;;;;6350660;22;20009;-82
2022/03/10 07:02:22;;;;;;;18.00;6.30;;;1.70;92.00;;;;;;6324732;22;20033;-81
2022/03/10 07:04:48;;;;;;;17.97;6.80;;;1.90;91.90;;;;;;6323183;22;20007;-83
2022/03/10 07:07:14;;;;;;;13.47;5.50;;;2.00;91.90;;;;;;6321684;22;20436;-83
2022/03/10 07:09:41;;;;;;;16.27;6.03;;;2.10;91.60;;;;;;6322585;22;20136;-82
2022/03/10 07:12:08;;;;;;;14.23;5.63;;;2.20;91.70;;;;;;6322078;22;20021;-83
2022/03/10 07:14:34;;;;;;;21.57;6.50;;;2.30;91.80;;;;;;6350306;22;20059;-83
2022/03/10 07:17:06;;;;;;;15.00;5.97;;;2.50;91.20;;;;;;6352319;22;20002;-83
2022/03/10 07:19:31;;;;;;;16.60;6.13;;;2.60;91.10;;;;;;6320583;22;20003;-83
2022/03/10 07:21:57;;;;;;;16.03;5.67;;;2.70;91.10;;;;;;6348908;22;20006;-83
2022/03/10 07:24:22;;;;;;;16.13;6.00;;;2.80;91.00;;;;;;6320961;22;20006;-83
2022/03/10 07:26:48;;;;;;;17.40;5.83;;;2.90;91.00;;;;;;6321388;22;20053;-82
2022/03/10 07:29:14;;;;;;;13.70;6.03;;;3.00;91.30;;;;;;6325835;22;20003;-82
2022/03/10 07:31:40;;;;;;;12.03;4.97;;;3.10;91.60;;;;;;6350700;22;20026;-84
2022/03/10 07:34:06;;;;;;;12.67;5.00;;;3.20;91.10;;;;;;6322231;22;19999;-83
2022/03/10 07:36:32;;;;;;;11.10;5.13;;;3.40;90.60;;;;;;6323473;22;20006;-82
2022/03/10 07:38:58;;;;;;;14.13;4.73;;;3.40;90.30;;;;;;6323812;22;20002;-83
2022/03/10 07:41:25;;;;;;;12.77;4.97;;;3.60;89.40;;;;;;6321847;22;20006;-83
2022/03/10 07:43:50;;;;;;;17.03;5.77;;;3.70;89.70;;;;;;6349085;22;20063;-83
2022/03/10 07:46:16;;;;;;;13.23;5.40;;;3.70;89.80;;;;;;6318471;22;19995;-82
2022/03/10 07:48:42;;;;;;;14.07;4.93;;;3.90;89.60;;;;;;6322471;22;20174;-82
2022/03/10 07:51:08;;;;;;;13.07;5.00;;;4.10;87.80;;;;;;6349351;22;20048;-84
2022/03/10 07:53:36;;;;;;;14.37;5.43;;;4.20;87.30;;;;;;6315359;22;20098;-84
2022/03/10 07:56:02;;;;;;;15.90;5.77;;;4.30;87.50;;;;;;6310756;22;20018;-84
2022/03/10 07:58:29;;;;;;;11.07;4.83;;;4.50;87.70;;;;;;6313020;22;20033;-84
2022/03/10 08:00:54;;;;;;;9.30;4.07;;;4.60;87.60;;;;;;6310344;22;20003;-84
2022/03/10 08:03:21;;;;;;;11.73;4.43;;;4.70;87.10;;;;;;6317876;22;20013;-84
2022/03/10 08:05:47;;;;;;;13.27;5.03;;;4.90;85.60;;;;;;6321406;22;20010;-85
2022/03/10 08:08:13;;;;;;;10.90;3.97;;;5.00;85.90;;;;;;6323889;22;20010;-85
2022/03/10 08:10:40;;;;;;;9.03;3.83;;;5.10;85.70;;;;;;6317896;22;20066;-84
2022/03/10 08:13:06;;;;;;;9.77;3.90;;;5.20;84.60;;;;;;6345432;22;20022;-84
2022/03/10 08:15:31;;;;;;;8.53;3.37;;;5.30;85.40;;;;;;6314388;22;20512;-85
2022/03/10 08:17:57;;;;;;;10.40;3.97;;;5.40;85.20;;;;;;6345633;22;20053;-85
2022/03/10 08:20:23;;;;;;;9.67;3.67;;;5.50;85.30;;;;;;6319833;22;20034;-85
2022/03/10 08:22:49;;;;;;;9.97;3.80;;;5.60;85.20;;;;;;6316697;22;20072;-85
2022/03/10 08:25:16;;;;;;;10.50;3.97;;;5.70;85.70;;;;;;6344758;22;19995;-85
2022/03/10 08:27:43;;;;;;;10.17;3.70;;;5.80;84.60;;;;;;6322412;22;20075;-84
2022/03/10 08:30:13;;;;;;;8.30;3.83;;;5.90;84.60;;;;;;6350023;22;19995;-84
2022/03/10 08:32:40;;;;;;;7.87;3.13;;;6.00;84.90;;;;;;6321438;22;20032;-85
2022/03/10 08:35:06;;;;;;;10.13;4.20;;;6.00;84.50;;;;;;6349732;22;20003;-85
2022/03/10 08:37:32;;;;;;;9.03;3.97;;;6.10;84.40;;;;;;6320455;22;20018;-85
2022/03/10 08:39:57;;;;;;;11.33;3.37;;;6.20;84.30;;;;;;6318694;22;20002;-84
2022/03/10 08:42:23;;;;;;;8.10;3.23;;;6.30;84.00;;;;;;6316439;22;20003;-84
2022/03/10 08:44:49;;;;;;;9.17;3.67;;;6.40;84.10;;;;;;6342181;22;20097;-85
2022/03/10 08:47:15;;;;;;;8.70;3.87;;;6.50;84.60;;;;;;6315682;22;20007;-85
2022/03/10 08:49:43;;;;;;;10.48;3.78;;;6.60;84.40;;;;;;6342501;22;20055;-85
2022/03/10 08:52:09;;;;;;;8.20;3.63;;;6.70;84.10;;;;;;6316326;22;20007;-85
2022/03/10 08:54:35;;;;;;;9.10;3.65;;;6.80;83.30;;;;;;6315262;22;20086;-85
2022/03/10 08:57:03;;;;;;;7.22;3.40;;;6.90;83.70;;;;;;6314337;22;20089;-85
2022/03/10 08:59:29;;;;;;;10.48;4.18;;;7.00;83.50;;;;;;6309242;22;20733;-85
2022/03/10 09:01:57;;;;;;;9.40;3.80;;;7.10;83.10;;;;;;6340948;22;20010;-85
2022/03/10 09:04:26;;;;;;;9.48;4.00;;;7.30;82.90;;;;;;6312900;22;20032;-85
2022/03/10 09:06:52;;;;;;;12.10;4.15;;;7.40;82.50;;;;;;6314222;22;20007;-85
2022/03/10 09:09:18;;;;;;;9.65;3.72;;;7.40;81.20;;;;;;6313040;22;20090;-85
2022/03/10 09:11:45;;;;;;;8.07;3.67;;;7.50;81.90;;;;;;6341923;22;20091;-86
2022/03/10 09:14:11;;;;;;;8.98;3.13;;;7.60;82.50;;;;;;6343685;22;20439;-85
2022/03/10 09:16:38;;;;;;;6.95;3.63;;;7.80;81.90;;;;;;6317671;22;20037;-85
2022/03/10 09:19:04;;;;;;;8.07;3.47;;;7.80;80.90;;;;;;6347007;22;20002;-85
2022/03/10 09:21:30;;;;;;;11.00;3.60;;;7.90;80.40;;;;;;6317863;22;20034;-85
2022/03/10 09:23:55;;;;;;;9.02;3.50;;;7.90;80.70;;;;;;6339367;22;20006;-85
2022/03/10 09:26:21;;;;;;;8.05;3.20;;;8.10;80.20;;;;;;6339408;22;20032;-85
2022/03/10 09:28:47;;;;;;;8.20;3.00;;;8.30;79.70;;;;;;6313072;22;20003;-85
2022/03/10 09:31:15;;;;;;;9.40;3.47;;;8.20;79.20;;;;;;6340842;22;20044;-85
2022/03/10 09:33:42;;;;;;;9.02;3.45;;;8.40;79.00;;;;;;6339325;22;19998;-85
2022/03/10 09:36:08;;;;;;;10.45;4.00;;;8.30;78.90;;;;;;6312768;22;20007;-85
2022/03/10 09:38:33;;;;;;;7.85;3.40;;;8.40;79.10;;;;;;6312566;22;20042;-85
2022/03/10 09:40:59;;;;;;;9.07;4.00;;;8.50;78.80;;;;;;6312197;22;20002;-85
2022/03/10 09:43:31;;;;;;;10.48;3.75;;;8.60;78.40;;;;;;6339614;22;20055;-85
2022/03/10 09:45:58;;;;;;;6.57;3.38;;;8.70;78.80;;;;;;6312150;22;19999;-85
2022/03/10 09:48:25;;;;;;;6.93;2.90;;;8.80;79.40;;;;;;6339490;22;20026;-85
2022/03/10 09:50:50;;;;;;;8.75;3.90;;;9.00;76.80;;;;;;6312039;22;20003;-85
2022/03/10 09:53:19;;;;;;;8.73;3.33;;;9.10;77.30;;;;;;6311238;22;20007;-85
2022/03/10 09:55:45;;;;;;;6.05;2.90;;;9.20;77.20;;;;;;6311370;22;20006;-85
2022/03/10 09:58:11;;;;;;;9.20;3.22;;;9.30;76.10;;;;;;6340170;22;19999;-85
2022/03/10 10:00:36;;;;;;;4.00;1.88;;;9.50;76.00;;;;;;6307295;22;20003;-85
2022/03/10 10:03:02;;;;;;;5.70;2.72;;;9.60;73.90;;;;;;6311859;22;20556;-85
2022/03/10 10:05:32;;;;;;;5.55;2.30;;;9.70;73.40;;;;;;6339836;22;20071;-85
2022/03/10 10:08:13;;;;;;;7.28;2.72;;;9.80;73.60;;;;;;6311127;22;20007;-85
2022/03/10 10:10:42;;;;;;;5.28;2.13;;;10.00;74.30;;;;;;6338692;22;20024;-86
2022/03/10 10:13:08;;;;;;;6.38;2.90;;;10.00;73.50;;;;;;6339845;22;20432;-86
2022/03/10 10:15:38;;;;;;;4.72;1.95;;;10.20;73.10;;;;;;6338485;22;20003;-85
2022/03/10 10:18:12;;;;;;;5.30;2.17;;;10.40;72.40;;;;;;6311203;22;20060;-86
2022/03/10 10:20:49;;;;;;;6.78;2.20;;;10.50;72.10;;;;;;6341019;22;19999;-85
2022/03/10 10:23:26;;;;;;;4.88;1.85;;;10.70;72.80;;;;;;6336867;22;19999;-85
2022/03/10 10:26:13;;;;;;;5.82;2.10;;;10.90;70.50;;;;;;6310476;22;20003;-85
2022/03/10 10:28:44;;;;;;;5.28;2.38;;;11.00;70.60;;;;;;6309126;22;20040;-85
2022/03/10 10:31:18;;;;;;;6.25;2.20;;;11.10;70.70;;;;;;6310038;22;19995;-85
2022/03/10 10:33:55;;;;;;;4.68;2.17;;;11.30;72.20;;;;;;6338101;22;20009;-85
2022/03/10 10:36:26;;;;;;;5.38;2.20;;;11.40;69.70;;;;;;6310490;22;20025;-85
2022/03/10 10:38:57;;;;;;;4.82;1.92;;;11.40;68.00;;;;;;6337908;22;20086;-85
2022/03/10 10:41:29;;;;;;;4.57;1.95;;;11.50;67.80;;;;;;6311827;22;20002;-85
2022/03/10 10:44:06;;;;;;;4.68;1.95;;;11.40;68.00;;;;;;6311104;22;20094;-86
2022/03/10 10:46:40;;;;;;;4.07;1.95;;;11.50;67.30;;;;;;6311603;22;20322;-85
2022/03/10 10:49:17;;;;;;;4.68;1.85;;;11.50;67.10;;;;;;6340719;22;20003;-86
2022/03/10 10:51:54;;;;;;;4.05;1.88;;;11.60;67.80;;;;;;6311412;22;20007;-85
2022/03/10 10:54:20;;;;;;;5.10;2.03;;;11.70;67.40;;;;;;6313258;22;20097;-85
2022/03/10 10:56:47;;;;;;;8.35;2.22;;;11.80;66.90;;;;;;6315897;22;20009;-86
2022/03/10 10:59:30;;;;;;;2.75;1.27;;;11.80;65.90;;;;;;6321088;22;20007;-85
2022/03/10 11:02:21;;;;;;;4.20;1.50;;;12.10;65.70;;;;;;6349370;22;20014;-85
2022/03/10 11:04:52;;;;;;;3.72;1.38;;;12.30;65.20;;;;;;6358091;22;20017;-85
2022/03/10 11:07:19;;;;;;;2.17;0.90;;;12.50;64.50;;;;;;6312750;22;19999;-86
2022/03/10 11:09:48;;;;;;;4.55;1.38;;;12.50;63.10;;;;;;6310757;22;19998;-85
2022/03/10 11:12:16;;;;;;;3.72;1.35;;;12.50;62.60;;;;;;6311209;22;20025;-86
2022/03/10 11:14:44;;;;;;;2.75;1.05;;;12.50;63.10;;;;;;6311310;22;20006;-85
2022/03/10 11:17:14;;;;;;;2.67;1.30;;;12.60;63.20;;;;;;6311753;22;20002;-86
2022/03/10 11:19:53;;;;;;;3.83;1.17;;;12.50;62.50;;;;;;6339874;22;20017;-85
2022/03/10 11:22:37;;;;;;;2.45;0.88;;;12.70;63.20;;;;;;6311202;22;20037;-86
2022/03/10 11:25:31;;;;;;;3.50;0.80;;;12.80;62.60;;;;;;6310459;22;20006;-86
2022/03/10 11:28:11;;;;;;;2.90;1.10;;;12.80;61.80;;;;;;6311113;22;20510;-85
2022/03/10 11:30:37;;;;;;;3.40;1.00;;;12.90;61.40;;;;;;6338651;22;20341;-86
2022/03/10 11:33:20;;;;;;;3.90;1.15;;;13.10;61.70;;;;;;6338144;22;20003;-86
2022/03/10 11:35:48;;;;;;;2.08;0.75;;;13.20;62.10;;;;;;6337285;22;19999;-85
2022/03/10 11:38:15;;;;;;;2.03;0.80;;;13.40;59.20;;;;;;6308986;22;20003;-85
2022/03/10 11:40:52;;;;;;;2.05;0.88;;;13.50;60.40;;;;;;6337767;22;20019;-86
2022/03/10 11:43:36;;;;;;;1.85;0.85;;;13.50;59.10;;;;;;6309138;22;20014;-86
2022/03/10 11:46:28;;;;;;;2.60;1.10;;;13.40;58.70;;;;;;6309138;22;19991;-86
2022/03/10 11:49:03;;;;;;;2.72;0.80;;;13.50;59.90;;;;;;6299281;22;20132;-85
2022/03/10 11:51:48;;;;;;;2.47;0.80;;;13.60;59.00;;;;;;6336840;22;20002;-86
2022/03/10 11:54:25;;;;;;;1.88;0.98;;;13.70;58.20;;;;;;6335831;22;20082;-85
2022/03/10 11:56:50;;;;;;;2.05;0.77;;;13.70;57.60;;;;;;6336900;22;20420;-86
2022/03/10 11:59:26;;;;;;;2.33;0.90;;;13.80;57.70;;;;;;6333303;22;20037;-84
2022/03/10 12:01:53;;;;;;;3.13;1.30;;;13.70;57.20;;;;;;6309788;22;20007;-84
2022/03/10 12:04:23;;;;;;;2.45;1.00;;;13.80;57.90;;;;;;6311015;22;20689;-85
2022/03/10 12:06:53;;;;;;;3.75;1.02;;;13.80;57.60;;;;;;6311394;22;20078;-85
2022/03/10 12:09:27;;;;;;;3.13;1.10;;;13.90;58.10;;;;;;6310609;22;20037;-85
2022/03/10 12:12:11;;;;;;;2.47;1.00;;;13.90;57.00;;;;;;6311218;22;20473;-85
2022/03/10 12:14:39;;;;;;;3.50;1.23;;;13.90;56.60;;;;;;6336983;22;20061;-85
2022/03/10 12:17:05;;;;;;;2.33;0.88;;;14.10;56.00;;;;;;6309810;22;20712;-85
2022/03/10 12:20:08;;;;;;;2.00;0.82;;;14.20;57.60;;;;;;6338709;22;19998;-85
2022/03/10 12:22:35;;;;;;;2.33;0.70;;;14.10;54.90;;;;;;6339842;22;20759;-85
2022/03/10 12:25:21;;;;;;;2.10;0.70;;;14.00;55.20;;;;;;6339394;22;20006;-84
2022/03/10 12:27:57;;;;;;;1.60;0.60;;;14.10;55.80;;;;;;6310875;22;20002;-85
2022/03/10 12:30:28;;;;;;;2.47;0.80;;;14.30;55.40;;;;;;6337336;22;20009;-85
2022/03/10 12:32:59;;;;;;;2.20;0.90;;;14.40;54.80;;;;;;6310812;22;20002;-85
2022/03/10 12:35:35;;;;;;;2.63;1.13;;;14.30;54.50;;;;;;6310160;22;20014;-85
2022/03/10 12:38:04;;;;;;;2.92;0.90;;;14.30;54.90;;;;;;6337104;22;19999;-85
2022/03/10 12:40:32;;;;;;;2.22;0.90;;;14.40;54.70;;;;;;6337303;22;20007;-85
2022/03/10 12:43:09;;;;;;;3.28;1.10;;;14.40;55.00;;;;;;6309296;22;20002;-85
2022/03/10 12:45:48;;;;;;;3.47;1.27;;;14.40;55.40;;;;;;6308502;22;20512;-85
2022/03/10 12:48:26;;;;;;;3.63;1.58;;;14.60;54.70;;;;;;6313541;22;20028;-85
2022/03/10 12:50:54;;;;;;;5.85;1.10;;;14.40;54.70;;;;;;6316457;22;20030;-85
2022/03/10 12:53:20;;;;;;;3.95;1.30;;;14.50;54.30;;;;;;6314209;22;20006;-85
2022/03/10 12:55:54;;;;;;;3.72;1.60;;;14.60;55.10;;;;;;6340679;22;19998;-85
2022/03/10 12:58:33;;;;;;;3.00;1.20;;;14.70;53.40;;;;;;6341481;22;20424;-85